createdAt,value
2019-04-06T00:01:11.609Z,8.20
2019-04-06T00:03:37.861Z,8.20
2019-04-06T00:06:04.345Z,8.20
2019-04-06T00:08:30.583Z,8.30
2019-04-06T00:10:56.812Z,8.30
2019-04-06T00:13:23.068Z,8.30
2019-04-06T00:15:49.289Z,8.30
2019-04-06T00:18:15.545Z,8.30
2019-04-06T00:20:41.872Z,8.30
2019-04-06T00:23:08.244Z,8.30
2019-04-06T00:25:43.781Z,8.30
2019-04-06T00:28:02.750Z,8.30
2019-04-06T00:30:30.892Z,8.30
2019-04-06T00:33:04.723Z,8.30
2019-04-06T00:35:30.947Z,8.30
2019-04-06T00:37:57.217Z,8.30
2019-04-06T00:40:23.463Z,8.30
2019-04-06T00:42:49.694Z,8.30
2019-04-06T00:45:16.032Z,8.30
2019-04-06T00:47:42.274Z,8.30
2019-04-06T00:50:09.058Z,8.30
2019-04-06T00:52:35.236Z,8.20
2019-04-06T00:55:01.488Z,8.20
2019-04-06T00:57:27.757Z,8.10
2019-04-06T00:59:54.019Z,8.10
2019-04-06T01:02:20.217Z,8.00
2019-04-06T01:04:46.466Z,8.00
2019-04-06T01:07:12.693Z,7.90
2019-04-06T01:09:39.046Z,7.90
2019-04-06T01:12:05.384Z,7.80
2019-04-06T01:14:31.637Z,7.80
2019-04-06T01:16:57.986Z,7.70
2019-04-06T01:19:24.255Z,7.70
2019-04-06T01:21:50.505Z,7.70
2019-04-06T01:24:16.728Z,7.60
2019-04-06T01:26:42.962Z,7.60
2019-04-06T01:29:09.189Z,7.50
2019-04-06T01:31:35.457Z,7.50
2019-04-06T01:34:01.958Z,7.50
2019-04-06T01:36:28.186Z,7.50
2019-04-06T01:38:54.412Z,7.50
2019-04-06T01:41:20.663Z,7.40
2019-04-06T01:43:46.891Z,7.50
2019-04-06T01:46:13.149Z,7.50
2019-04-06T01:48:39.422Z,7.50
2019-04-06T01:51:05.773Z,7.50
2019-04-06T01:53:32.030Z,7.40
2019-04-06T01:55:58.274Z,7.40
2019-04-06T01:58:24.492Z,7.40
2019-04-06T02:01:01.374Z,7.40
2019-04-06T02:03:27.603Z,7.40
2019-04-06T02:05:53.978Z,7.40
2019-04-06T02:08:20.218Z,7.40
2019-04-06T02:10:46.522Z,7.50
2019-04-06T02:13:12.693Z,7.50
2019-04-06T02:15:38.923Z,7.50
2019-04-06T02:18:06.058Z,7.50
2019-04-06T02:20:32.423Z,7.50
2019-04-06T02:22:58.931Z,7.50
2019-04-06T02:25:25.174Z,7.50
2019-04-06T02:27:51.486Z,7.60
2019-04-06T02:30:28.280Z,7.50
2019-04-06T02:32:59.315Z,7.60
2019-04-06T02:35:27.562Z,7.60
2019-04-06T02:38:01.630Z,7.60
2019-04-06T02:40:38.514Z,7.60
2019-04-06T02:43:06.657Z,7.60
2019-04-06T02:45:32.885Z,7.50
2019-04-06T02:47:59.140Z,7.50
2019-04-06T02:50:25.556Z,7.50
2019-04-06T02:52:51.810Z,7.50
2019-04-06T02:55:18.049Z,7.40
2019-04-06T02:57:44.297Z,7.40
2019-04-06T03:00:10.740Z,7.30
2019-04-06T03:02:37.080Z,7.30
2019-04-06T03:05:05.611Z,7.20
2019-04-06T03:07:31.844Z,7.20
2019-04-06T03:09:58.466Z,7.10
2019-04-06T03:12:24.805Z,7.00
2019-04-06T03:14:51.056Z,7.00
2019-04-06T03:17:17.331Z,7.00
2019-04-06T03:19:43.960Z,7.00
2019-04-06T03:22:10.228Z,6.90
2019-04-06T03:24:36.470Z,6.90
2019-04-06T03:27:03.258Z,6.90
2019-04-06T03:29:29.527Z,6.90
2019-04-06T03:31:55.807Z,6.90
2019-04-06T03:34:22.845Z,6.80
2019-04-06T03:36:49.554Z,6.80
2019-04-06T03:39:15.803Z,6.80
2019-04-06T03:41:41.983Z,6.80
2019-04-06T03:44:08.211Z,6.80
2019-04-06T03:46:34.462Z,6.80
2019-04-06T03:49:00.729Z,6.80
2019-04-06T03:51:26.937Z,6.90
2019-04-06T03:53:53.276Z,6.80
2019-04-06T03:56:19.516Z,6.90
2019-04-06T03:58:45.759Z,6.90
2019-04-06T04:01:12.081Z,6.90
2019-04-06T04:03:38.325Z,6.90
2019-04-06T04:06:04.839Z,6.90
2019-04-06T04:08:31.233Z,6.90
2019-04-06T04:10:57.456Z,6.90
2019-04-06T04:13:24.016Z,6.90
2019-04-06T04:15:50.350Z,7.00
2019-04-06T04:18:16.580Z,7.00
2019-04-06T04:20:42.880Z,7.00
2019-04-06T04:23:09.174Z,7.00
2019-04-06T04:25:35.577Z,7.10
2019-04-06T04:28:01.854Z,7.10
2019-04-06T04:30:32.977Z,7.10
2019-04-06T04:32:56.234Z,7.20
2019-04-06T04:35:22.701Z,7.20
2019-04-06T04:37:49.281Z,7.30
2019-04-06T04:40:15.749Z,7.30
2019-04-06T04:42:42.080Z,7.30
2019-04-06T04:45:08.609Z,7.30
2019-04-06T04:47:34.957Z,7.30
2019-04-06T04:50:01.513Z,7.40
2019-04-06T04:52:27.793Z,7.40
2019-04-06T04:54:54.030Z,7.40
2019-04-06T04:57:20.429Z,7.40
2019-04-06T04:59:46.624Z,7.40
2019-04-06T05:02:12.836Z,7.40
2019-04-06T05:04:39.343Z,7.40
2019-04-06T05:07:05.572Z,7.40
2019-04-06T05:09:31.808Z,7.40
2019-04-06T05:11:58.043Z,7.40
2019-04-06T05:14:56.828Z,7.50
2019-04-06T05:17:23.246Z,7.50
2019-04-06T05:19:49.466Z,7.50
2019-04-06T05:22:15.689Z,7.50
2019-04-06T05:24:42.011Z,7.50
2019-04-06T05:27:08.247Z,7.50
2019-04-06T05:29:34.506Z,7.50
2019-04-06T05:32:00.728Z,7.60
2019-04-06T05:34:26.978Z,7.60
2019-04-06T05:36:53.199Z,7.70
2019-04-06T05:39:19.571Z,7.70
2019-04-06T05:41:45.751Z,7.70
2019-04-06T05:44:12.014Z,7.80
2019-04-06T05:46:38.255Z,7.80
2019-04-06T05:49:04.756Z,7.90
2019-04-06T05:51:30.978Z,7.90
2019-04-06T05:53:57.221Z,7.90
2019-04-06T05:56:23.434Z,7.90
2019-04-06T05:58:49.736Z,7.90
2019-04-06T06:01:16.321Z,8.00
2019-04-06T06:03:42.583Z,8.10
2019-04-06T06:06:08.847Z,8.30
2019-04-06T06:08:35.072Z,8.50
2019-04-06T06:11:01.314Z,8.60
2019-04-06T06:13:27.536Z,8.70
2019-04-06T06:15:53.768Z,8.80
2019-04-06T06:18:26.355Z,8.80
2019-04-06T06:20:48.421Z,8.80
2019-04-06T06:23:15.009Z,8.80
2019-04-06T06:25:41.236Z,8.90
2019-04-06T06:28:14.176Z,9.00
2019-04-06T06:30:35.939Z,9.00
2019-04-06T06:33:02.493Z,8.90
2019-04-06T06:35:28.844Z,8.90
2019-04-06T06:37:55.103Z,9.00
2019-04-06T06:40:21.357Z,9.20
2019-04-06T06:42:47.576Z,9.20
2019-04-06T06:45:16.373Z,9.30
2019-04-06T06:47:42.690Z,9.30
2019-04-06T06:50:11.474Z,9.40
2019-04-06T06:52:43.018Z,9.30
2019-04-06T06:55:09.697Z,9.30
2019-04-06T06:57:36.103Z,9.50
2019-04-06T07:00:04.190Z,10.00
2019-04-06T07:02:30.650Z,10.00
2019-04-06T07:04:56.950Z,10.30
2019-04-06T07:07:23.290Z,10.30
2019-04-06T07:09:49.504Z,10.10
2019-04-06T07:12:15.772Z,10.00
2019-04-06T07:14:42.006Z,10.00
2019-04-06T07:17:08.268Z,9.90
2019-04-06T07:19:34.482Z,9.80
2019-04-06T07:22:00.757Z,9.80
2019-04-06T07:24:27.007Z,9.70
2019-04-06T07:26:53.219Z,9.70
2019-04-06T07:29:19.469Z,9.70
2019-04-06T07:31:45.749Z,9.70
2019-04-06T07:34:12.075Z,9.70
2019-04-06T07:36:38.314Z,9.70
2019-04-06T07:39:05.261Z,9.80
2019-04-06T07:41:31.488Z,9.80
2019-04-06T07:43:57.729Z,9.80
2019-04-06T07:46:23.969Z,9.80
2019-04-06T07:48:50.211Z,9.80
2019-04-06T07:51:16.435Z,9.80
2019-04-06T07:53:42.672Z,9.80
2019-04-06T07:56:08.903Z,9.90
2019-04-06T07:58:35.153Z,9.90
2019-04-06T08:01:01.504Z,9.90
2019-04-06T08:03:27.787Z,9.90
2019-04-06T08:05:54.011Z,10.00
2019-04-06T08:08:20.271Z,10.00
2019-04-06T08:10:46.999Z,10.10
2019-04-06T08:13:13.231Z,10.10
2019-04-06T08:15:39.478Z,10.20
2019-04-06T08:18:05.801Z,10.20
2019-04-06T08:20:32.013Z,10.20
2019-04-06T08:22:58.350Z,10.30
2019-04-06T08:25:24.598Z,10.30
2019-04-06T08:27:50.828Z,10.50
2019-04-06T08:30:17.257Z,10.60
2019-04-06T08:32:43.477Z,10.70
2019-04-06T08:35:10.822Z,10.90
2019-04-06T08:37:37.087Z,11.00
2019-04-06T08:40:05.609Z,11.20
2019-04-06T08:42:31.916Z,11.30
2019-04-06T08:44:58.086Z,11.50
2019-04-06T08:47:24.697Z,11.70
2019-04-06T08:49:50.927Z,11.80
2019-04-06T08:52:17.171Z,12.00
2019-04-06T08:54:43.426Z,12.10
2019-04-06T08:57:09.662Z,12.20
2019-04-06T08:59:35.876Z,12.30
2019-04-06T09:02:02.163Z,12.30
2019-04-06T09:04:28.360Z,12.30
2019-04-06T09:06:54.685Z,12.50
2019-04-06T09:09:20.962Z,12.80
2019-04-06T09:11:47.239Z,13.10
2019-04-06T09:14:15.451Z,13.50
2019-04-06T09:16:41.793Z,13.80
2019-04-06T09:19:08.020Z,14.00
2019-04-06T09:21:34.261Z,14.30
2019-04-06T09:24:00.505Z,14.50
2019-04-06T09:26:26.927Z,14.70
2019-04-06T09:28:53.200Z,15.00
2019-04-06T09:31:19.435Z,15.20
2019-04-06T09:33:45.721Z,15.00
2019-04-06T09:36:12.073Z,14.90
2019-04-06T09:38:38.307Z,15.00
2019-04-06T09:41:04.649Z,15.10
2019-04-06T09:43:30.916Z,15.40
2019-04-06T09:46:17.117Z,15.60
2019-04-06T09:48:48.282Z,15.70
2019-04-06T09:51:19.337Z,15.70
2019-04-06T09:54:06.359Z,15.70
2019-04-06T09:56:43.152Z,15.90
2019-04-06T09:59:11.296Z,16.10
2019-04-06T10:01:54.420Z,16.20
2019-04-06T10:04:40.750Z,16.20
2019-04-06T10:07:21.067Z,16.30
2019-04-06T10:09:52.214Z,16.40
2019-04-06T10:12:37.138Z,16.50
2019-04-06T10:15:23.680Z,16.40
2019-04-06T10:18:03.836Z,16.40
2019-04-06T10:20:44.142Z,16.40
2019-04-06T10:23:29.127Z,16.10
2019-04-06T10:26:13.632Z,15.60
2019-04-06T10:28:58.183Z,15.40
2019-04-06T10:31:28.965Z,15.20
2019-04-06T10:34:03.122Z,15.20
2019-04-06T10:36:40.177Z,15.30
2019-04-06T10:39:08.350Z,15.40
2019-04-06T10:41:39.154Z,15.50
2019-04-06T10:44:13.204Z,15.60
2019-04-06T10:46:41.339Z,15.60
2019-04-06T10:49:15.642Z,15.50
2019-04-06T10:52:00.760Z,15.50
2019-04-06T10:54:45.707Z,15.70
2019-04-06T10:57:19.956Z,16.00
2019-04-06T11:00:11.836Z,16.20
2019-04-06T11:02:46.074Z,16.20
2019-04-06T11:05:14.344Z,16.00
2019-04-06T11:07:51.737Z,15.90
2019-04-06T11:10:29.014Z,15.90
2019-04-06T11:13:14.033Z,15.80
2019-04-06T11:15:44.786Z,15.50
2019-04-06T11:18:15.857Z,15.40
2019-04-06T11:20:44.017Z,15.30
2019-04-06T11:23:18.574Z,15.40
2019-04-06T11:25:49.704Z,15.30
2019-04-06T11:28:23.538Z,15.20
2019-04-06T11:31:10.298Z,15.00
2019-04-06T11:33:55.005Z,14.80
2019-04-06T11:36:26.303Z,14.70
2019-04-06T11:39:00.861Z,14.70
2019-04-06T11:41:31.623Z,14.70
2019-04-06T11:44:15.311Z,14.70
2019-04-06T11:46:43.457Z,14.60
2019-04-06T11:49:23.742Z,14.60
2019-04-06T11:51:58.638Z,14.70
2019-04-06T11:54:26.787Z,14.70
2019-04-06T11:57:13.510Z,14.70
2019-04-06T11:59:53.660Z,14.80
2019-04-06T12:02:25.114Z,14.90
2019-04-06T12:05:10.004Z,15.10
2019-04-06T12:07:43.811Z,15.10
2019-04-06T12:10:27.993Z,15.10
2019-04-06T12:12:58.776Z,15.00
2019-04-06T12:15:41.957Z,15.00
2019-04-06T12:18:10.139Z,15.00
2019-04-06T12:20:38.334Z,15.00
2019-04-06T12:23:23.002Z,14.90
2019-04-06T12:26:06.096Z,15.00
2019-04-06T12:28:34.247Z,15.00
2019-04-06T12:31:05.345Z,15.20
2019-04-06T12:33:50.071Z,15.20
2019-04-06T12:36:18.365Z,15.20
2019-04-06T12:38:56.667Z,15.20
2019-04-06T12:41:33.795Z,15.20
2019-04-06T12:44:18.801Z,15.30
2019-04-06T12:46:55.762Z,15.40
2019-04-06T12:49:23.904Z,15.40
2019-04-06T12:52:09.262Z,15.40
2019-04-06T12:54:40.803Z,15.40
2019-04-06T12:57:21.133Z,15.50
2019-04-06T12:59:58.344Z,15.50
2019-04-06T13:02:26.933Z,15.50
2019-04-06T13:04:57.725Z,15.50
2019-04-06T13:07:42.405Z,15.50
2019-04-06T13:10:26.365Z,15.60
2019-04-06T13:13:03.458Z,15.60
2019-04-06T13:15:31.636Z,15.60
2019-04-06T13:18:12.189Z,15.60
2019-04-06T13:20:57.399Z,15.60
2019-04-06T13:23:25.814Z,15.60
2019-04-06T13:26:12.032Z,15.50
2019-04-06T13:28:58.244Z,15.50
2019-04-06T13:31:35.317Z,15.60
2019-04-06T13:34:18.749Z,15.60
2019-04-06T13:37:02.252Z,15.50
2019-04-06T13:39:45.001Z,15.60
2019-04-06T13:42:31.510Z,15.60
2019-04-06T13:45:18.231Z,15.60
2019-04-06T13:47:46.845Z,15.60
2019-04-06T13:50:26.958Z,15.60
2019-04-06T13:53:01.704Z,15.70
2019-04-06T13:55:30.012Z,15.70
2019-04-06T13:58:07.130Z,15.60
2019-04-06T14:00:35.408Z,15.50
2019-04-06T14:03:09.229Z,15.60
2019-04-06T14:05:39.976Z,15.50
2019-04-06T14:08:17.023Z,15.60
2019-04-06T14:11:02.289Z,15.50
2019-04-06T14:13:36.172Z,15.50
2019-04-06T14:16:07.965Z,15.50
2019-04-06T14:18:38.753Z,15.60
2019-04-06T14:21:13.467Z,15.60
2019-04-06T14:23:47.727Z,15.70
2019-04-06T14:26:18.763Z,15.80
2019-04-06T14:28:47.160Z,15.70
2019-04-06T14:31:29.953Z,15.60
2019-04-06T14:34:14.351Z,15.70
2019-04-06T14:36:54.994Z,15.60
2019-04-06T14:39:39.831Z,15.60
2019-04-06T14:42:23.946Z,15.50
2019-04-06T14:44:54.958Z,15.60
2019-04-06T14:47:38.099Z,15.60
2019-04-06T14:50:15.489Z,15.60
2019-04-06T14:53:01.637Z,15.50
2019-04-06T14:55:29.773Z,15.50
2019-04-06T14:58:00.595Z,15.40
2019-04-06T15:00:31.926Z,15.50
2019-04-06T15:03:00.076Z,15.50
2019-04-06T15:05:36.951Z,15.50
2019-04-06T15:08:08.075Z,15.50
2019-04-06T15:10:39.610Z,15.50
2019-04-06T15:13:10.513Z,15.50
2019-04-06T15:15:41.726Z,15.50
2019-04-06T15:18:22.158Z,15.60
2019-04-06T15:20:59.320Z,15.50
2019-04-06T15:23:27.912Z,15.50
2019-04-06T15:26:07.943Z,15.50
2019-04-06T15:28:36.112Z,15.60
2019-04-06T15:31:06.939Z,15.50
2019-04-06T15:33:35.296Z,15.50
2019-04-06T15:36:09.142Z,15.40
2019-04-06T15:38:40.197Z,15.30
2019-04-06T15:41:25.632Z,15.30
2019-04-06T15:44:06.292Z,15.30
2019-04-06T15:46:34.480Z,15.30
2019-04-06T15:49:19.135Z,15.30
2019-04-06T15:51:47.507Z,15.30
2019-04-06T15:54:21.388Z,15.20
2019-04-06T15:57:06.345Z,15.20
2019-04-06T15:59:51.467Z,15.20
2019-04-06T16:02:31.577Z,15.10
2019-04-06T16:05:16.070Z,15.10
2019-04-06T16:07:47.184Z,15.10
2019-04-06T16:10:24.982Z,15.00
2019-04-06T16:13:02.503Z,15.00
2019-04-06T16:15:39.539Z,15.00
2019-04-06T16:18:10.396Z,15.00
2019-04-06T16:20:38.755Z,15.00
2019-04-06T16:23:25.327Z,15.10
2019-04-06T16:25:53.577Z,15.00
2019-04-06T16:28:22.123Z,15.00
2019-04-06T16:30:59.251Z,15.00
2019-04-06T16:33:30.281Z,15.00
2019-04-06T16:36:13.810Z,15.00
2019-04-06T16:38:42.025Z,15.00
2019-04-06T16:41:19.287Z,15.00
2019-04-06T16:43:47.563Z,15.00
2019-04-06T16:46:16.203Z,14.90
2019-04-06T16:48:47.761Z,14.90
2019-04-06T16:51:15.958Z,14.80
2019-04-06T16:53:47.123Z,14.80
2019-04-06T16:56:24.826Z,14.80
2019-04-06T16:58:55.594Z,14.80
2019-04-06T17:01:26.396Z,14.70
2019-04-06T17:04:12.773Z,14.70
2019-04-06T17:06:41.023Z,14.70
2019-04-06T17:09:09.254Z,14.60
2019-04-06T17:11:37.388Z,14.60
2019-04-06T17:14:05.529Z,14.60
2019-04-06T17:16:36.695Z,14.60
2019-04-06T17:19:10.933Z,14.50
2019-04-06T17:21:45.490Z,14.50
2019-04-06T17:24:16.731Z,14.50
2019-04-06T17:26:48.073Z,14.40
2019-04-06T17:29:28.231Z,14.40
2019-04-06T17:32:02.085Z,14.30
2019-04-06T17:34:33.630Z,14.30
2019-04-06T17:37:02.890Z,14.20
2019-04-06T17:39:34.547Z,14.20
2019-04-06T17:42:11.444Z,14.20
2019-04-06T17:44:39.601Z,14.10
2019-04-06T17:47:13.679Z,14.10
2019-04-06T17:49:58.528Z,14.10
2019-04-06T17:52:29.678Z,14.00
2019-04-06T17:54:58.101Z,14.00
2019-04-06T17:57:26.376Z,14.00
2019-04-06T18:00:09.848Z,13.90
2019-04-06T18:02:50.552Z,13.90
2019-04-06T18:05:17.168Z,13.90
2019-04-06T18:07:54.468Z,13.80
2019-04-06T18:10:25.535Z,13.80
2019-04-06T18:13:02.841Z,13.80
2019-04-06T18:15:29.422Z,13.70
2019-04-06T18:17:56.079Z,13.60
2019-04-06T18:20:22.432Z,13.50
2019-04-06T18:22:48.970Z,13.60
2019-04-06T18:25:15.702Z,13.60
2019-04-06T18:27:42.012Z,13.50
2019-04-06T18:30:09.116Z,13.50
2019-04-06T18:32:43.252Z,13.50
2019-04-06T18:35:10.821Z,13.40
2019-04-06T18:37:44.877Z,13.40
2019-04-06T18:40:13.954Z,13.40
2019-04-06T18:42:40.622Z,13.40
2019-04-06T18:45:07.531Z,13.40
2019-04-06T18:47:33.913Z,13.40
2019-04-06T18:50:00.122Z,13.40
2019-04-06T18:52:26.367Z,13.40
2019-04-06T18:54:52.821Z,13.40
2019-04-06T18:57:20.149Z,13.40
2019-04-06T18:59:46.434Z,13.40
2019-04-06T19:02:12.978Z,13.30
2019-04-06T19:04:39.632Z,13.20
2019-04-06T19:07:06.169Z,13.20
2019-04-06T19:09:33.802Z,13.10
2019-04-06T19:12:00.770Z,13.00
2019-04-06T19:14:36.172Z,13.00
2019-04-06T19:17:03.015Z,12.90
2019-04-06T19:19:29.805Z,12.90
2019-04-06T19:21:57.139Z,12.80
2019-04-06T19:24:24.059Z,12.80
2019-04-06T19:26:50.935Z,12.80
2019-04-06T19:29:17.357Z,12.80
2019-04-06T19:31:47.883Z,12.70
2019-04-06T19:34:14.672Z,12.70
2019-04-06T19:36:41.421Z,12.60
2019-04-06T19:39:12.348Z,12.60
2019-04-06T19:41:40.631Z,12.60
2019-04-06T19:46:54.871Z,12.50
2019-04-06T19:49:23.051Z,12.50
2019-04-06T19:51:50.247Z,12.50
2019-04-06T19:54:17.607Z,12.40
2019-04-06T19:56:45.005Z,12.30
2019-04-06T19:59:13.465Z,12.30
2019-04-06T20:01:44.718Z,12.30
2019-04-06T20:04:12.186Z,12.30
2019-04-06T20:06:39.988Z,12.20
2019-04-06T20:09:08.585Z,12.20
2019-04-06T20:11:36.693Z,12.20
2019-04-06T20:14:04.384Z,12.10
2019-04-06T20:16:31.868Z,12.10
2019-04-06T20:18:59.037Z,12.10
2019-04-06T20:21:25.561Z,12.00
2019-04-06T20:23:51.819Z,12.00
2019-04-06T20:26:20.948Z,12.00
2019-04-06T20:28:47.224Z,11.90
2019-04-06T20:31:13.478Z,11.90
2019-04-06T20:33:48.165Z,11.90
2019-04-06T20:36:08.182Z,11.90
2019-04-06T20:38:34.460Z,11.80
2019-04-06T20:41:01.078Z,11.70
2019-04-06T20:43:27.600Z,11.70
2019-04-06T20:45:54.343Z,11.60
2019-04-06T20:48:20.690Z,11.60
2019-04-06T20:50:47.801Z,11.60
2019-04-06T20:53:14.577Z,11.60
2019-04-06T20:55:40.954Z,11.50
2019-04-06T20:58:07.333Z,11.50
2019-04-06T21:00:33.690Z,11.50
2019-04-06T21:02:59.909Z,11.40
2019-04-06T21:05:26.268Z,11.30
2019-04-06T21:07:52.557Z,11.30
2019-04-06T21:10:19.134Z,11.20
2019-04-06T21:12:45.564Z,11.20
2019-04-06T21:15:18.905Z,11.20
2019-04-06T21:17:40.258Z,11.20
2019-04-06T21:20:07.709Z,11.10
2019-04-06T21:22:34.208Z,11.00
2019-04-06T21:25:00.475Z,11.00
2019-04-06T21:27:27.111Z,10.90
2019-04-06T21:29:54.312Z,10.90
2019-04-06T21:32:20.772Z,10.90
2019-04-06T21:34:46.985Z,10.90
2019-04-06T21:37:13.418Z,10.90
2019-04-06T21:39:39.728Z,10.90
2019-04-06T21:42:06.000Z,10.90
2019-04-06T21:44:32.239Z,10.90
2019-04-06T21:46:59.036Z,10.80
2019-04-06T21:49:28.866Z,10.80
2019-04-06T21:51:55.314Z,10.80
2019-04-06T21:54:21.543Z,10.70
2019-04-06T21:56:47.919Z,10.70
2019-04-06T21:59:15.949Z,10.70
2019-04-06T22:01:42.468Z,10.60
2019-04-06T22:04:08.768Z,10.60
2019-04-06T22:06:48.939Z,10.60
2019-04-06T22:09:15.490Z,10.60
2019-04-06T22:11:42.403Z,10.50
2019-04-06T22:14:09.308Z,10.40
2019-04-06T22:16:35.673Z,10.40
2019-04-06T22:19:01.900Z,10.40
2019-04-06T22:21:34.641Z,10.40
2019-04-06T22:24:01.513Z,10.40
2019-04-06T22:26:27.756Z,10.40
2019-04-06T22:28:53.998Z,10.30
2019-04-06T22:31:20.230Z,10.30
2019-04-06T22:33:46.502Z,10.30
2019-04-06T22:36:12.921Z,10.30
2019-04-06T22:38:39.173Z,10.30
2019-04-06T22:41:05.698Z,10.20
2019-04-06T22:43:32.814Z,10.20
2019-04-06T22:45:59.930Z,10.20
2019-04-06T22:48:26.600Z,10.10
2019-04-06T22:50:52.860Z,10.10
2019-04-06T22:53:19.095Z,10.00
2019-04-06T22:55:45.848Z,10.00
2019-04-06T22:58:12.774Z,9.90
2019-04-06T23:00:48.500Z,9.80
2019-04-06T23:03:22.586Z,9.80
2019-04-06T23:05:57.265Z,9.80
2019-04-06T23:08:23.599Z,9.80
2019-04-06T23:10:50.416Z,9.70
2019-04-06T23:13:16.825Z,9.70
2019-04-06T23:15:43.040Z,9.70
2019-04-06T23:18:09.383Z,9.60
2019-04-06T23:20:35.601Z,9.60
2019-04-06T23:23:02.227Z,9.60
2019-04-06T23:25:28.885Z,9.60
2019-04-06T23:27:55.686Z,9.50
2019-04-06T23:30:21.892Z,9.50
2019-04-06T23:32:48.132Z,9.50
2019-04-06T23:35:14.367Z,9.50
2019-04-06T23:37:40.588Z,9.50
2019-04-06T23:40:07.458Z,9.40
2019-04-06T23:42:33.699Z,9.40
2019-04-06T23:45:00.094Z,9.40
2019-04-06T23:47:27.343Z,9.30
2019-04-06T23:49:53.710Z,9.30
2019-04-06T23:52:20.064Z,9.20
2019-04-06T23:54:46.289Z,9.20
2019-04-06T23:57:12.998Z,9.10
2019-04-06T23:59:39.577Z,9.10
